Time;durP1;ratioP1;P1;durP2;ratioP2;P2;SDS_P1;SDS_P2;PMS_P1;PMS_P2;Temp;Humidity;BMP_temperature;BMP_pressure;BME280_temperature;BME280_humidity;BME280_pressure;Samples;Min_cycle;Max_cycle;Signal;HPM_P1;HPM_P2
2024/03/13 00:01:24;;;;;;;36.43;17.07;;;;;;;4.98;100.00;100804.97;5058421;28;20205;-81
2024/03/13 00:03:51;;;;;;;32.60;16.83;;;;;;;4.97;100.00;100803.25;5053195;28;20210;-81
2024/03/13 00:06:18;;;;;;;42.20;17.93;;;;;;;4.94;100.00;100798.94;5056100;28;20250;-81
2024/03/13 00:08:45;;;;;;;34.63;17.63;;;;;;;4.94;100.00;100795.44;5054730;28;20232;-81
2024/03/13 00:11:11;;;;;;;39.90;17.17;;;;;;;4.92;100.00;100799.91;5053706;28;20241;-80
2024/03/13 00:13:42;;;;;;;38.07;17.17;;;;;;;4.92;100.00;100799.91;5054538;28;20260;-81
2024/03/13 00:16:09;;;;;;;34.63;17.53;;;;;;;4.91;100.00;100799.06;5050671;28;20289;-81
2024/03/13 00:18:37;;;;;;;34.57;16.80;;;;;;;4.90;100.00;100799.97;5051196;28;20282;-81
2024/03/13 00:21:04;;;;;;;39.70;17.53;;;;;;;4.89;100.00;100796.47;5053500;28;20216;-82
2024/03/13 00:23:31;;;;;;;35.20;16.77;;;;;;;4.86;100.00;100796.59;5053099;28;20197;-81
2024/03/13 00:25:57;;;;;;;38.60;17.67;;;;;;;4.84;100.00;100803.69;5053437;28;20326;-81
2024/03/13 00:28:24;;;;;;;42.77;17.43;;;;;;;4.83;100.00;100796.72;5050518;28;20714;-82
2024/03/13 00:30:52;;;;;;;37.53;16.63;;;;;;;4.85;100.00;100807.19;5054330;28;20272;-82
2024/03/13 00:33:19;;;;;;;41.70;18.50;;;;;;;4.85;100.00;100800.16;5051256;28;20228;-80
2024/03/13 00:35:45;;;;;;;39.03;15.97;;;;;;;4.86;100.00;100799.22;5052006;28;20576;-81
2024/03/13 00:38:12;;;;;;;38.63;17.43;;;;;;;4.86;100.00;100795.72;5051236;28;20257;-81
2024/03/13 00:40:40;;;;;;;37.93;17.73;;;;;;;4.87;100.00;100800.09;5054330;28;20202;-81
2024/03/13 00:43:07;;;;;;;42.90;16.83;;;;;;;4.86;100.00;100796.59;5059292;28;20213;-81
2024/03/13 00:45:34;;;;;;;44.40;18.80;;;;;;;4.87;100.00;100798.31;5054152;28;20305;-81
2024/03/13 00:48:02;;;;;;;37.10;17.87;;;;;;;4.89;100.00;100791.19;5053715;28;20261;-81
2024/03/13 00:50:28;;;;;;;38.10;17.23;;;;;;;4.91;100.00;100795.56;5048361;28;20240;-82
2024/03/13 00:52:55;;;;;;;36.13;17.13;;;;;;;4.91;100.00;100792.91;5050958;28;20229;-82
2024/03/13 00:55:23;;;;;;;37.87;17.27;;;;;;;4.91;100.00;100790.28;5051394;28;20237;-82
2024/03/13 00:57:50;;;;;;;39.83;18.83;;;;;;;4.88;100.00;100793.91;5051955;28;20225;-81
2024/03/13 01:00:21;;;;;;;35.07;17.10;;;;;;;4.88;100.00;100792.13;5051138;28;20198;-82
2024/03/13 01:02:47;;;;;;;36.70;17.90;;;;;;;4.85;100.00;100792.22;5054617;28;20217;-81
2024/03/13 01:05:16;;;;;;;35.73;17.33;;;;;;;4.84;100.00;100792.28;5050680;28;20205;-81
2024/03/13 01:07:45;;;;;;;39.90;17.90;;;;;;;4.80;100.00;100782.78;5054079;28;20655;-82
2024/03/13 01:10:12;;;;;;;38.80;17.57;;;;;;;4.79;100.00;100779.28;5051763;28;20202;-82
2024/03/13 01:12:39;;;;;;;39.20;18.77;;;;;;;4.78;100.00;100781.97;5052918;28;20848;-81
2024/03/13 01:15:07;;;;;;;38.70;18.33;;;;;;;4.76;100.00;100789.94;5049448;28;20198;-81
2024/03/13 01:17:34;;;;;;;40.70;16.87;;;;;;;4.73;100.00;100790.06;5050783;28;20228;-81
2024/03/13 01:20:01;;;;;;;39.17;17.90;;;;;;;4.71;100.00;100791.88;5053574;28;20277;-81
2024/03/13 01:22:30;;;;;;;38.37;18.17;;;;;;;4.69;100.00;100784.94;5052108;28;20206;-81
2024/03/13 01:24:58;;;;;;;34.40;15.93;;;;;;;4.66;100.00;100780.63;5052640;28;20433;-81
2024/03/13 01:27:24;;;;;;;37.97;18.07;;;;;;;4.64;100.00;100779.84;5041970;28;20300;-82
2024/03/13 01:29:51;;;;;;;42.90;18.27;;;;;;;4.65;100.00;100778.09;5050186;28;20285;-81
2024/03/13 01:32:17;;;;;;;34.93;17.40;;;;;;;4.63;100.00;100772.84;5052104;28;20233;-81
2024/03/13 01:34:47;;;;;;;44.00;19.33;;;;;;;4.62;100.00;100771.13;5045801;28;20255;-81
2024/03/13 01:40:03;;;;;;;52.37;22.20;;;;;;;4.57;100.00;100765.16;5046537;28;20747;-81
2024/03/13 01:56:59;;;;;;;33.47;15.10;;;;;;;4.46;100.00;100759.44;5031100;28;20228;-80
2024/03/13 01:59:35;;;;;;;39.07;16.23;;;;;;;4.35;100.00;100758.94;5051340;28;20230;-80
2024/03/13 02:04:48;;;;;;;38.03;17.30;;;;;;;4.27;100.00;100738.13;5052955;28;20204;-82
2024/03/13 02:07:15;;;;;;;35.33;16.63;;;;;;;4.31;100.00;100739.72;5049223;28;20230;-82
2024/03/13 02:09:41;;;;;;;36.77;17.60;;;;;;;4.34;100.00;100738.75;5051580;28;20240;-82
2024/03/13 02:12:11;;;;;;;36.90;17.57;;;;;;;4.34;100.00;100744.03;5052880;28;20248;-81
2024/03/13 02:14:37;;;;;;;41.60;18.37;;;;;;;4.37;100.00;100743.94;5053614;28;20202;-81
2024/03/13 02:17:06;;;;;;;37.77;17.57;;;;;;;4.38;100.00;100733.31;5053703;28;20653;-81
2024/03/13 02:19:36;;;;;;;40.67;18.73;;;;;;;4.39;100.00;100744.72;5049538;28;20209;-82
2024/03/13 02:22:05;;;;;;;36.87;17.77;;;;;;;4.40;100.00;100742.03;5049285;28;20298;-81
2024/03/13 02:24:33;;;;;;;38.70;17.10;;;;;;;4.45;100.00;100734.84;5053220;28;20223;-81
2024/03/13 02:27:00;;;;;;;37.57;18.20;;;;;;;4.48;100.00;100736.47;5012286;28;20230;-81
2024/03/13 02:29:27;;;;;;;38.30;18.10;;;;;;;4.47;100.00;100735.66;5021396;28;20218;-81
2024/03/13 02:31:54;;;;;;;47.90;17.37;;;;;;;4.45;100.00;100747.16;5019836;28;20303;-81
2024/03/13 02:34:20;;;;;;;45.30;18.63;;;;;;;4.44;100.00;100748.94;5020492;28;20216;-81
2024/03/13 02:36:47;;;;;;;40.10;18.73;;;;;;;4.43;100.00;100746.34;5039631;28;20198;-81
2024/03/13 02:39:17;;;;;;;34.13;17.17;;;;;;;4.45;100.00;100744.53;5020911;28;20226;-81
2024/03/13 02:41:44;;;;;;;43.17;19.03;;;;;;;4.49;100.00;100754.03;5041884;28;20212;-80
2024/03/13 02:44:10;;;;;;;44.53;18.97;;;;;;;4.47;100.00;100746.19;5016271;28;20297;-82
2024/03/13 02:46:37;;;;;;;46.50;18.50;;;;;;;4.48;100.00;100744.38;5015482;28;20316;-81
2024/03/13 02:49:04;;;;;;;39.03;18.50;;;;;;;4.48;100.00;100742.59;5031469;28;20316;-82
2024/03/13 02:51:30;;;;;;;45.13;17.80;;;;;;;4.51;100.00;100749.56;5016890;28;20232;-81
2024/03/13 02:53:57;;;;;;;40.00;18.83;;;;;;;4.47;100.00;100735.66;5020162;28;20288;-81
2024/03/13 02:56:25;;;;;;;41.87;18.13;;;;;;;4.49;100.00;100735.56;5020077;28;20236;-81
2024/03/13 02:58:52;;;;;;;40.47;19.17;;;;;;;4.56;100.00;100733.56;5027787;28;20678;-81
2024/03/13 03:01:19;;;;;;;37.07;16.87;;;;;;;4.56;100.00;100728.28;5023571;28;20237;-81
2024/03/13 03:03:46;;;;;;;39.47;18.13;;;;;;;4.60;100.00;100732.53;5021821;28;20215;-82
2024/03/13 03:06:15;;;;;;;38.73;18.30;;;;;;;4.58;100.00;100737.00;5020528;28;20194;-82
2024/03/13 03:08:44;;;;;;;38.53;17.47;;;;;;;4.59;100.00;100738.72;5022645;28;20838;-82
2024/03/13 03:11:10;;;;;;;38.90;17.67;;;;;;;4.57;100.00;100736.16;5026689;28;20197;-81
2024/03/13 03:13:38;;;;;;;37.90;17.43;;;;;;;4.55;100.00;100737.97;5019872;28;20240;-81
2024/03/13 03:16:05;;;;;;;36.83;17.93;;;;;;;4.54;100.00;100728.34;5020808;28;20202;-82
2024/03/13 03:18:32;;;;;;;39.00;17.70;;;;;;;4.52;100.00;100738.09;5022524;28;20607;-81
2024/03/13 03:20:59;;;;;;;41.50;17.77;;;;;;;4.48;100.00;100731.19;5016326;28;20205;-81
2024/03/13 03:23:26;;;;;;;42.03;17.57;;;;;;;4.45;100.00;100728.69;5022635;28;20213;-81
2024/03/13 03:25:53;;;;;;;38.37;17.43;;;;;;;4.41;100.00;100730.59;5019520;28;20239;-81
2024/03/13 03:28:19;;;;;;;42.07;18.33;;;;;;;4.38;100.00;100729.81;5015565;28;20233;-81
2024/03/13 03:30:48;;;;;;;41.63;18.17;;;;;;;4.31;100.00;100729.19;5023096;28;20229;-81
2024/03/13 03:33:15;;;;;;;39.53;18.00;;;;;;;4.30;100.00;100724.81;5035110;28;20287;-82
2024/03/13 03:35:43;;;;;;;38.70;17.97;;;;;;;4.27;100.00;100716.19;5039026;28;20263;-81
2024/03/13 03:38:10;;;;;;;41.37;17.80;;;;;;;4.23;100.00;100719.84;5038364;28;20304;-80
2024/03/13 03:40:36;;;;;;;37.53;18.03;;;;;;;4.19;100.00;100721.72;5021087;28;20237;-81
2024/03/13 03:43:04;;;;;;;41.87;18.87;;;;;;;4.19;100.00;100722.59;5020055;28;20237;-80
2024/03/13 03:45:30;;;;;;;37.23;17.20;;;;;;;4.20;100.00;100723.44;5017781;28;20205;-81
2024/03/13 03:47:57;;;;;;;40.67;19.10;;;;;;;4.19;100.00;100727.84;5018177;28;20752;-80
2024/03/13 03:50:24;;;;;;;36.73;17.70;;;;;;;4.22;100.00;100728.66;5020407;28;20277;-81
2024/03/13 03:52:51;;;;;;;43.00;18.80;;;;;;;4.22;100.00;100726.03;5016934;28;20285;-81
2024/03/13 03:55:19;;;;;;;42.43;18.57;;;;;;;4.24;100.00;100724.22;5018562;28;20673;-81
2024/03/13 03:57:46;;;;;;;38.17;18.50;;;;;;;4.24;100.00;100725.06;5023343;28;20694;-80
2024/03/13 04:00:14;;;;;;;41.07;19.03;;;;;;;4.24;100.00;100726.84;5017992;28;20206;-80
2024/03/13 04:02:41;;;;;;;44.43;19.43;;;;;;;4.28;100.00;100731.94;5024591;28;20213;-80
2024/03/13 04:05:08;;;;;;;40.97;18.67;;;;;;;4.25;100.00;100725.94;5019169;28;20227;-80
2024/03/13 04:07:36;;;;;;;46.53;19.53;;;;;;;4.25;100.00;100739.97;5017368;28;20228;-81
2024/03/13 04:10:03;;;;;;;43.20;17.77;;;;;;;4.28;100.00;100733.72;5021416;28;20259;-80
2024/03/13 04:12:30;;;;;;;41.13;18.07;;;;;;;4.30;100.00;100731.91;5036348;28;20233;-81
2024/03/13 04:14:56;;;;;;;43.30;18.87;;;;;;;4.27;100.00;100737.28;5018429;28;20206;-81
2024/03/13 04:17:23;;;;;;;39.23;17.93;;;;;;;4.25;100.00;100724.16;5022163;28;20244;-81
2024/03/13 04:19:50;;;;;;;44.03;19.03;;;;;;;4.29;100.00;100733.69;5018891;28;20237;-82
2024/03/13 04:22:17;;;;;;;41.13;18.50;;;;;;;4.30;100.00;100738.00;5021874;28;20241;-80
2024/03/13 04:24:43;;;;;;;40.70;18.67;;;;;;;4.30;100.00;100735.38;5022486;28;20205;-81
2024/03/13 04:27:10;;;;;;;41.80;20.20;;;;;;;4.33;100.00;100732.63;5013224;28;20230;-81
2024/03/13 04:29:37;;;;;;;45.93;19.53;;;;;;;4.34;100.00;100736.13;5036321;28;20256;-82
2024/03/13 04:32:04;;;;;;;40.27;18.97;;;;;;;4.35;100.00;100738.72;5014508;28;20244;-81
2024/03/13 04:34:31;;;;;;;46.90;19.33;;;;;;;4.33;100.00;100740.53;5036983;28;20256;-80
2024/03/13 04:36:57;;;;;;;47.63;19.50;;;;;;;4.33;100.00;100742.31;5018580;28;20652;-80
2024/03/13 04:39:24;;;;;;;41.33;19.00;;;;;;;4.32;100.00;100740.59;5021357;28;20324;-82
2024/03/13 04:41:51;;;;;;;44.60;19.67;;;;;;;4.29;100.00;100740.72;5019530;28;20198;-81
2024/03/13 04:44:18;;;;;;;37.90;18.30;;;;;;;4.24;100.00;100742.66;5018522;28;20237;-82
2024/03/13 04:46:44;;;;;;;41.13;19.07;;;;;;;4.22;100.00;100745.34;5018143;28;20708;-82
2024/03/13 04:49:11;;;;;;;41.23;18.70;;;;;;;4.23;100.00;100744.44;5018713;28;20249;-81
2024/03/13 04:51:38;;;;;;;41.87;18.47;;;;;;;4.21;100.00;100751.53;5042287;28;20209;-81
2024/03/13 04:54:06;;;;;;;40.23;18.03;;;;;;;4.19;100.00;100753.34;5009780;28;20211;-81
2024/03/13 04:56:34;;;;;;;44.37;18.57;;;;;;;4.23;100.00;100756.75;5016851;28;20662;-82
2024/03/13 04:59:00;;;;;;;47.83;19.53;;;;;;;4.25;100.00;100762.84;5023542;28;20214;-82
2024/03/13 05:01:27;;;;;;;43.20;19.30;;;;;;;4.22;100.00;100765.56;5031870;28;20275;-81
2024/03/13 05:03:54;;;;;;;43.60;18.33;;;;;;;4.24;100.00;100758.47;5017086;28;20278;-81
2024/03/13 05:06:21;;;;;;;47.73;19.13;;;;;;;4.29;100.00;100761.81;5037874;28;20233;-82
2024/03/13 05:08:47;;;;;;;43.50;18.13;;;;;;;4.33;100.00;100774.81;5015095;28;20318;-81
2024/03/13 05:11:17;;;;;;;43.93;19.13;;;;;;;4.33;100.00;100773.94;5031992;28;20205;-81
2024/03/13 05:13:45;;;;;;;39.53;17.77;;;;;;;4.33;100.00;100776.59;5018899;28;20205;-81
2024/03/13 05:16:12;;;;;;;44.93;19.30;;;;;;;4.32;100.00;100773.09;5022034;28;20288;-82
2024/03/13 05:18:39;;;;;;;38.17;17.33;;;;;;;4.40;100.00;100778.97;5012306;28;20221;-81
2024/03/13 05:21:06;;;;;;;41.53;18.33;;;;;;;4.40;100.00;100778.09;5038496;28;20292;-81
2024/03/13 05:23:33;;;;;;;42.47;18.53;;;;;;;4.43;100.00;100764.81;5018103;28;20274;-81
2024/03/13 05:25:59;;;;;;;37.70;18.13;;;;;;;4.47;100.00;100764.66;5015973;28;20270;-81
2024/03/13 05:28:28;;;;;;;40.97;16.43;;;;;;;4.44;100.00;100767.41;5016150;28;20318;-81
2024/03/13 05:30:55;;;;;;;37.40;17.77;;;;;;;4.43;100.00;100775.34;5017667;28;20201;-82
2024/03/13 05:33:21;;;;;;;33.37;15.67;;;;;;;4.42;100.00;100778.91;5015439;28;20228;-81
2024/03/13 05:35:48;;;;;;;34.43;16.73;;;;;;;4.40;100.00;100781.59;5009514;28;20289;-81
2024/03/13 05:38:16;;;;;;;44.13;18.97;;;;;;;4.40;100.00;100784.25;5032218;28;20317;-81
2024/03/13 05:40:43;;;;;;;44.73;20.57;;;;;;;4.43;100.00;100780.63;5029045;28;20224;-81
2024/03/13 05:43:10;;;;;;;41.83;20.47;;;;;;;4.44;100.00;100777.94;5011645;28;20289;-81
2024/03/13 05:45:36;;;;;;;45.90;19.17;;;;;;;4.44;100.00;100783.22;5010411;28;20577;-81
2024/03/13 05:48:04;;;;;;;33.13;16.17;;;;;;;4.45;100.00;100776.16;5016254;28;20311;-82
2024/03/13 05:50:30;;;;;;;36.40;16.83;;;;;;;4.45;100.00;100770.91;5014949;28;20296;-80
2024/03/13 05:52:57;;;;;;;34.23;17.27;;;;;;;4.48;100.00;100761.06;5037648;28;20236;-80
2024/03/13 05:55:24;;;;;;;38.17;17.17;;;;;;;4.49;100.00;100769.84;5014385;28;20536;-80
2024/03/13 05:57:51;;;;;;;33.63;15.97;;;;;;;4.51;100.00;100763.59;5013040;28;20214;-81
2024/03/13 06:00:19;;;;;;;43.37;17.93;;;;;;;4.51;100.00;100760.09;5012311;28;20713;-80
2024/03/13 06:02:45;;;;;;;34.90;17.03;;;;;;;4.50;100.00;100756.59;5017467;28;20270;-81
2024/03/13 06:05:14;;;;;;;37.70;16.97;;;;;;;4.46;100.00;100747.09;5015090;28;20283;-81
2024/03/13 06:07:41;;;;;;;41.73;17.27;;;;;;;4.48;100.00;100739.97;5030196;28;20305;-80
2024/03/13 06:10:09;;;;;;;38.87;17.73;;;;;;;4.50;100.00;100738.13;5016005;28;20319;-82
2024/03/13 06:12:36;;;;;;;34.80;15.77;;;;;;;4.55;100.00;100740.63;5012368;28;20237;-81
2024/03/13 06:15:06;;;;;;;33.50;15.70;;;;;;;4.63;100.00;100737.72;5016946;28;20232;-81
2024/03/13 06:17:34;;;;;;;35.67;16.93;;;;;;;4.65;100.00;100752.56;5034297;28;20245;-82
2024/03/13 06:20:01;;;;;;;30.43;14.87;;;;;;;4.73;100.00;100754.91;5019445;28;20662;-81
2024/03/13 06:22:28;;;;;;;31.17;15.63;;;;;;;4.77;100.00;100754.72;5022649;28;20243;-81
2024/03/13 06:24:55;;;;;;;32.50;14.73;;;;;;;4.80;100.00;100746.72;5016990;28;20551;-81
2024/03/13 06:27:27;;;;;;;33.30;15.40;;;;;;;4.85;100.00;100742.09;5036087;28;20296;-80
2024/03/13 06:29:57;;;;;;;31.30;14.23;;;;;;;4.88;100.00;100738.47;5025085;28;20197;-80
2024/03/13 06:32:24;;;;;;;27.67;14.23;;;;;;;4.93;100.00;100733.03;5027227;28;20208;-80
2024/03/13 06:34:51;;;;;;;26.27;14.03;;;;;;;4.97;100.00;100730.22;5020203;28;20206;-80
2024/03/13 06:37:18;;;;;;;26.57;14.60;;;;;;;4.99;100.00;100733.66;5046420;28;20198;-81
2024/03/13 06:39:44;;;;;;;26.03;13.00;;;;;;;5.04;100.00;100736.09;5020520;28;20268;-81
2024/03/13 06:42:11;;;;;;;27.80;14.73;;;;;;;5.07;100.00;100733.34;5023069;28;20237;-81
2024/03/13 06:44:38;;;;;;;24.97;13.40;;;;;;;5.13;100.00;100733.09;5019911;28;20206;-81
2024/03/13 06:47:05;;;;;;;23.30;10.63;;;;;;;5.23;100.00;100739.72;5025285;28;20201;-80
2024/03/13 06:49:32;;;;;;;21.63;11.40;;;;;;;5.29;100.00;100736.84;5019465;28;20229;-81
2024/03/13 06:51:59;;;;;;;24.33;12.60;;;;;;;5.29;100.00;100742.13;5019311;28;20279;-81
2024/03/13 06:54:26;;;;;;;19.47;11.10;;;;;;;5.32;100.00;100742.03;5018768;28;20320;-81
2024/03/13 06:56:53;;;;;;;20.63;11.87;;;;;;;5.37;100.00;100755.91;5020155;28;20271;-81
2024/03/13 06:59:19;;;;;;;21.57;11.43;;;;;;;5.41;100.00;100743.41;5018073;28;20847;-80
2024/03/13 07:01:47;;;;;;;18.33;10.10;;;;;;;5.46;100.00;100747.59;5046789;28;20673;-80
2024/03/13 07:04:13;;;;;;;22.07;11.83;;;;;;;5.52;100.00;100750.00;5017575;28;20293;-81
2024/03/13 07:06:41;;;;;;;21.17;11.23;;;;;;;5.62;100.00;100739.03;5018728;28;20297;-81
2024/03/13 07:09:08;;;;;;;21.43;10.30;;;;;;;5.68;100.00;100747.59;5037788;28;20253;-80
2024/03/13 07:11:36;;;;;;;18.33;10.17;;;;;;;5.76;100.00;100747.25;5018110;28;20207;-80
2024/03/13 07:14:04;;;;;;;18.80;10.20;;;;;;;5.77;100.00;100754.25;5035454;28;20215;-81
2024/03/13 07:16:32;;;;;;;17.87;9.53;;;;;;;5.81;100.00;100747.91;5027228;28;20216;-80
2024/03/13 07:18:59;;;;;;;16.13;9.43;;;;;;;5.90;100.00;100753.72;5030256;28;20220;-80
2024/03/13 07:21:26;;;;;;;15.80;10.00;;;;;;;6.00;100.00;100742.75;5019552;28;20213;-80
2024/03/13 07:23:52;;;;;;;17.67;9.83;;;;;;;6.09;100.00;100743.19;5019727;28;20237;-81
2024/03/13 07:26:19;;;;;;;15.73;8.67;;;;;;;6.16;100.00;100746.44;5021718;28;20236;-81
2024/03/13 07:28:46;;;;;;;13.37;7.83;;;;;;;6.19;100.00;100731.31;5016641;28;20750;-81
2024/03/13 07:31:12;;;;;;;17.97;10.13;;;;;;;6.29;100.00;100744.97;5024504;28;20234;-81
2024/03/13 07:33:39;;;;;;;15.50;9.20;;;;;;;6.33;100.00;100745.69;5023824;28;20213;-81
2024/03/13 07:36:07;;;;;;;14.27;8.93;;;;;;;6.42;100.00;100748.81;5012249;28;20289;-81
2024/03/13 07:38:36;;;;;;;13.53;8.97;;;;;;;6.44;100.00;100756.69;5023905;28;20305;-81
2024/03/13 07:41:03;;;;;;;12.03;7.00;;;;;;;6.47;100.00;100762.66;5025024;28;20265;-81
2024/03/13 07:43:30;;;;;;;12.53;7.57;;;;;;;6.56;100.00;100758.78;5021017;28;20213;-81
2024/03/13 07:45:57;;;;;;;11.87;7.70;;;;;;;6.66;100.00;100762.69;5017714;28;20213;-80
2024/03/13 07:48:24;;;;;;;11.70;7.60;;;;;;;6.76;100.00;100758.72;5017214;28;20226;-81
2024/03/13 07:50:51;;;;;;;13.47;7.77;;;;;;;6.87;100.00;100755.56;5016852;28;20236;-81
2024/03/13 07:53:23;;;;;;;12.10;6.87;;;;;;;7.03;100.00;100761.00;5021696;28;20289;-81
2024/03/13 07:55:50;;;;;;;12.70;7.40;;;;;;;7.15;100.00;100758.66;5017857;28;20197;-80
2024/03/13 07:58:17;;;;;;;11.00;7.23;;;;;;;7.26;100.00;100766.94;5016369;28;20683;-81
2024/03/13 08:00:44;;;;;;;10.87;7.53;;;;;;;7.43;100.00;100775.88;5019002;28;20209;-80
2024/03/13 08:03:11;;;;;;;11.90;7.20;;;;;;;7.54;100.00;100763.81;5029304;28;20209;-81
2024/03/13 08:05:38;;;;;;;12.53;7.80;;;;;;;7.66;99.52;100757.91;5035773;28;20217;-81
2024/03/13 08:08:05;;;;;;;13.17;7.60;;;;;;;7.78;97.14;100759.09;5031514;28;20667;-82
2024/03/13 08:10:31;;;;;;;12.23;7.27;;;;;;;7.89;97.89;100758.53;5021592;28;20297;-81
2024/03/13 08:12:59;;;;;;;11.53;6.87;;;;;;;7.99;97.31;100750.06;5022445;28;20226;-81
2024/03/13 08:15:26;;;;;;;11.63;7.43;;;;;;;8.16;96.40;100762.44;5020495;28;20662;-82
2024/03/13 08:17:52;;;;;;;12.13;7.03;;;;;;;8.29;93.85;100758.22;5019585;28;20316;-81
2024/03/13 08:20:19;;;;;;;11.40;6.87;;;;;;;8.35;92.96;100757.94;5019200;28;20217;-81
2024/03/13 08:22:46;;;;;;;11.00;6.60;;;;;;;8.43;93.28;100765.47;5017705;28;20658;-82
2024/03/13 08:25:16;;;;;;;10.73;7.03;;;;;;;8.55;93.33;100758.69;5020341;28;20269;-80
2024/03/13 08:27:42;;;;;;;10.00;6.73;;;;;;;8.65;92.02;100775.81;5024480;28;20961;-81
2024/03/13 08:30:09;;;;;;;12.50;7.87;;;;;;;8.75;90.65;100776.22;5019045;28;20293;-81
2024/03/13 08:32:37;;;;;;;11.03;7.27;;;;;;;8.79;90.29;100775.94;5012383;28;20225;-81
2024/03/13 08:35:04;;;;;;;9.83;6.97;;;;;;;8.89;89.10;100778.97;5015630;28;20204;-81
2024/03/13 08:37:31;;;;;;;10.00;6.40;;;;;;;8.94;89.09;100769.81;5008759;28;20581;-81
2024/03/13 08:40:00;;;;;;;11.07;6.00;;;;;;;9.01;89.41;100783.59;5025027;28;20233;-81
2024/03/13 08:42:27;;;;;;;10.83;7.10;;;;;;;9.09;88.53;100785.84;5021559;28;20208;-80
2024/03/13 08:44:53;;;;;;;9.97;5.90;;;;;;;9.18;89.06;100778.22;5040127;28;22078;-80
2024/03/13 08:47:21;;;;;;;8.53;5.17;;;;;;;9.25;88.50;100771.63;5019597;28;20233;-80
2024/03/13 08:49:48;;;;;;;8.53;6.27;;;;;;;9.30;87.43;100769.59;5020219;28;20228;-80
2024/03/13 08:52:15;;;;;;;9.13;5.73;;;;;;;9.37;88.29;100762.97;5018081;28;20207;-81
2024/03/13 08:54:42;;;;;;;9.00;5.93;;;;;;;9.44;88.76;100760.81;5025497;28;20208;-81
2024/03/13 08:57:09;;;;;;;9.83;5.97;;;;;;;9.55;89.57;100752.22;5020419;28;20214;-80
2024/03/13 08:59:36;;;;;;;9.00;6.03;;;;;;;9.68;87.61;100748.75;5015307;28;20290;-81
2024/03/13 09:02:05;;;;;;;7.80;5.33;;;;;;;9.81;86.52;100748.91;5024307;28;20613;-81
2024/03/13 09:04:32;;;;;;;9.50;5.63;;;;;;;9.89;85.76;100751.97;5023710;28;20263;-80
2024/03/13 09:07:00;;;;;;;9.60;6.10;;;;;;;9.96;86.05;100752.47;5032503;28;20214;-81
2024/03/13 09:09:27;;;;;;;10.83;6.20;;;;;;;10.00;84.96;100751.34;5035828;28;20237;-80
2024/03/13 09:11:54;;;;;;;9.33;6.20;;;;;;;10.06;84.19;100753.63;5040913;28;20238;-81
2024/03/13 09:14:23;;;;;;;7.07;5.33;;;;;;;10.17;83.89;100750.34;5031205;28;20316;-80
2024/03/13 09:16:50;;;;;;;8.87;5.83;;;;;;;10.24;82.96;100752.56;5064676;28;20202;-81
2024/03/13 09:19:17;;;;;;;7.97;5.70;;;;;;;10.29;83.45;100750.50;5037238;28;20219;-81
2024/03/13 09:21:47;;;;;;;8.87;6.23;;;;;;;10.37;82.52;100740.25;5022352;28;20291;-80
2024/03/13 09:24:15;;;;;;;8.00;5.17;;;;;;;10.44;82.13;100738.91;5019530;28;20196;-80
2024/03/13 09:26:41;;;;;;;9.60;6.30;;;;;;;10.45;81.58;100750.41;5036945;28;20207;-80
2024/03/13 09:29:08;;;;;;;7.73;5.03;;;;;;;10.54;82.24;100749.00;5020057;28;20321;-81
2024/03/13 09:31:39;;;;;;;9.73;5.93;;;;;;;10.64;81.75;100739.47;5018029;28;20276;-81
2024/03/13 09:34:10;;;;;;;8.10;5.73;;;;;;;10.66;79.74;100748.25;5010128;28;20232;-82
2024/03/13 09:36:37;;;;;;;9.53;5.57;;;;;;;10.66;79.71;100754.41;5016863;28;20218;-81
2024/03/13 09:39:04;;;;;;;8.87;5.73;;;;;;;10.64;80.05;100755.47;5019563;28;20299;-81
2024/03/13 09:41:31;;;;;;;7.50;5.33;;;;;;;10.67;80.53;100761.47;5014884;28;20582;-81
2024/03/13 09:43:58;;;;;;;8.07;5.80;;;;;;;10.65;79.63;100760.69;5010786;28;20285;-81
2024/03/13 09:46:25;;;;;;;10.03;5.70;;;;;;;10.67;80.65;100765.94;5020301;28;20206;-81
2024/03/13 09:48:51;;;;;;;7.97;5.67;;;;;;;10.70;80.44;100766.59;5016901;28;20269;-81
2024/03/13 09:51:18;;;;;;;8.50;5.70;;;;;;;10.72;80.47;100770.03;5023879;28;20289;-81
2024/03/13 09:53:45;;;;;;;7.80;5.53;;;;;;;10.77;79.74;100764.41;5021351;28;20647;-81
2024/03/13 09:56:13;;;;;;;9.90;6.83;;;;;;;10.77;79.96;100767.06;5025581;28;20227;-81
2024/03/13 09:58:44;;;;;;;8.60;6.33;;;;;;;10.76;80.20;100770.66;5018227;28;20803;-82
2024/03/13 10:01:11;;;;;;;8.53;4.80;;;;;;;10.82;80.81;100764.13;5019181;28;20206;-81
2024/03/13 10:03:38;;;;;;;10.10;6.77;;;;;;;10.88;79.94;100763.75;5024122;28;20237;-82
2024/03/13 10:06:05;;;;;;;7.83;6.00;;;;;;;10.89;79.34;100768.13;5024214;28;20244;-81
2024/03/13 10:08:31;;;;;;;11.03;6.63;;;;;;;10.87;80.31;100768.22;5024745;28;20236;-80
2024/03/13 10:11:00;;;;;;;9.17;6.40;;;;;;;10.87;80.19;100772.69;5041267;28;20442;-80
2024/03/13 10:13:27;;;;;;;10.30;6.20;;;;;;;10.87;80.39;100780.69;5025358;28;20244;-80
2024/03/13 10:15:54;;;;;;;8.70;5.73;;;;;;;10.87;80.04;100784.19;5024638;28;20238;-80
2024/03/13 10:18:20;;;;;;;8.83;6.27;;;;;;;10.84;79.65;100783.53;5024375;28;20252;-80
2024/03/13 10:20:48;;;;;;;9.33;5.80;;;;;;;10.82;79.97;100785.44;5024345;28;20726;-81
2024/03/13 10:23:14;;;;;;;8.77;6.27;;;;;;;10.82;80.06;100786.28;5023880;28;20217;-81
2024/03/13 10:25:41;;;;;;;11.17;6.90;;;;;;;10.83;80.11;100781.81;5024266;28;20236;-81
2024/03/13 10:28:08;;;;;;;8.20;5.87;;;;;;;10.78;80.58;100777.63;5023123;28;20263;-80
2024/03/13 10:30:34;;;;;;;9.37;6.47;;;;;;;10.78;81.16;100784.75;5024174;28;20231;-81
2024/03/13 10:33:01;;;;;;;10.60;7.03;;;;;;;10.83;81.02;100774.69;5023807;28;20243;-82
2024/03/13 10:35:28;;;;;;;10.00;6.30;;;;;;;10.82;80.86;100780.09;5024750;28;20299;-81
2024/03/13 10:37:55;;;;;;;11.80;5.77;;;;;;;10.83;80.76;100780.00;5024724;28;20745;-80
2024/03/13 10:40:24;;;;;;;10.23;6.27;;;;;;;10.83;81.15;100781.81;5024269;28;20207;-81
2024/03/13 10:42:51;;;;;;;9.23;6.03;;;;;;;10.80;81.50;100780.19;5023415;28;20250;-80
2024/03/13 10:45:18;;;;;;;8.33;6.20;;;;;;;10.73;81.55;100781.53;5023235;28;20234;-80
2024/03/13 10:47:45;;;;;;;11.17;7.63;;;;;;;10.73;82.81;100777.06;5022342;28;20260;-80
2024/03/13 10:50:12;;;;;;;9.30;6.73;;;;;;;10.79;82.80;100768.69;5022413;28;20226;-78
2024/03/13 10:52:39;;;;;;;9.40;6.43;;;;;;;10.81;82.88;100776.56;5022829;28;20241;-79
2024/03/13 10:55:07;;;;;;;10.17;6.20;;;;;;;10.83;83.08;100780.00;5022302;28;20272;-79
2024/03/13 10:57:36;;;;;;;9.73;5.43;;;;;;;10.81;82.78;100784.56;5021599;28;20223;-79
2024/03/13 11:00:10;;;;;;;9.20;6.80;;;;;;;10.82;83.45;100778.28;5024001;28;20213;-80
2024/03/13 11:02:38;;;;;;;8.73;5.87;;;;;;;10.82;83.57;100770.31;5027073;28;20240;-79
2024/03/13 11:05:06;;;;;;;8.17;6.20;;;;;;;10.88;83.62;100777.06;5026414;28;20197;-80
2024/03/13 11:07:33;;;;;;;9.53;5.90;;;;;;;10.92;83.75;100762.59;5025549;28;20316;-80
2024/03/13 11:09:59;;;;;;;8.37;5.63;;;;;;;10.92;83.85;100771.47;5025722;28;20652;-79
2024/03/13 11:12:27;;;;;;;8.97;5.20;;;;;;;10.95;84.14;100773.03;5025673;28;20237;-79
2024/03/13 11:14:55;;;;;;;9.03;6.00;;;;;;;10.97;84.04;100765.81;5025611;28;20213;-79
2024/03/13 11:17:22;;;;;;;8.70;5.60;;;;;;;10.94;84.17;100769.53;5025827;28;20210;-79
2024/03/13 11:19:49;;;;;;;9.13;5.90;;;;;;;10.96;84.81;100766.75;5025501;28;20748;-79
2024/03/13 11:22:16;;;;;;;8.27;5.80;;;;;;;11.00;84.78;100762.97;5025703;28;20205;-80
2024/03/13 11:24:43;;;;;;;8.10;6.40;;;;;;;11.00;84.58;100758.50;5026094;28;20203;-79
2024/03/13 11:27:10;;;;;;;7.93;5.70;;;;;;;11.03;84.78;100760.97;5025893;28;20303;-80
2024/03/13 11:29:40;;;;;;;8.03;5.47;;;;;;;11.08;85.29;100760.69;5027319;28;20266;-81
2024/03/13 11:32:08;;;;;;;8.10;5.30;;;;;;;11.12;84.45;100765.69;5024346;28;20243;-81
2024/03/13 11:34:36;;;;;;;7.67;6.23;;;;;;;11.19;84.74;100759.97;5024988;28;20207;-79